Time;durP1;ratioP1;P1;durP2;ratioP2;P2;SDS_P1;SDS_P2;PMS_P1;PMS_P2;Temp;Humidity;BMP_temperature;BMP_pressure;BME280_temperature;BME280_humidity;BME280_pressure;Samples;Min_cycle;Max_cycle;Signal;HPM_P1;HPM_P2
2021/03/02 00:01:52;;;;;;;44.17;8.88;;;0.80;99.90;;;;;;4944693;27;20090;-88
2021/03/02 00:04:23;;;;;;;41.47;9.90;;;;;;;;;;4947353;27;20156;-88
2021/03/02 00:06:49;;;;;;;43.22;9.43;;;0.60;99.90;;;;;;4940536;27;20091;-87
2021/03/02 00:09:19;;;;;;;39.60;10.55;;;0.50;99.90;;;;;;4956604;27;20073;-87
2021/03/02 00:11:49;;;;;;;42.13;10.02;;;0.60;99.90;;;;;;4951103;27;20099;-87
2021/03/02 00:14:18;;;;;;;53.03;10.27;;;0.70;99.90;;;;;;4953002;27;20517;-85
2021/03/02 00:16:51;;;;;;;39.08;8.88;;;0.70;99.90;;;;;;4949442;27;20094;-87
2021/03/02 00:19:34;;;;;;;62.35;10.18;;;0.70;99.90;;;;;;4957316;27;20125;-87
2021/03/02 00:22:04;;;;;;;82.47;10.07;;;0.70;99.90;;;;;;4953806;27;20087;-87
2021/03/02 00:24:41;;;;;;;40.60;10.50;;;0.70;99.90;;;;;;4940437;27;20083;-87
2021/03/02 00:27:15;;;;;;;36.42;9.48;;;0.80;99.90;;;;;;4943256;27;20099;-86
2021/03/02 00:29:41;;;;;;;35.13;8.80;;;0.70;99.90;;;;;;4928929;27;20090;-87
2021/03/02 00:32:07;;;;;;;50.88;9.73;;;0.60;99.90;;;;;;4955404;27;20081;-88
2021/03/02 00:34:31;;;;;;;56.13;7.75;;;0.50;99.90;;;;;;4947526;27;20085;-84
2021/03/02 00:37:00;;;;;;;47.15;8.98;;;0.50;99.90;;;;;;4949327;27;20078;-85
2021/03/02 00:39:30;;;;;;;33.35;9.20;;;0.50;99.90;;;;;;4952339;27;20531;-88
2021/03/02 00:42:01;;;;;;;53.35;9.30;;;0.60;99.90;;;;;;4949877;27;20095;-88
2021/03/02 00:44:25;;;;;;;53.40;9.73;;;0.50;99.90;;;;;;4944853;27;20117;-87
2021/03/02 00:46:51;;;;;;;47.67;10.20;;;0.50;99.90;;;;;;4948880;27;20086;-87
2021/03/02 00:49:17;;;;;;;48.63;9.18;;;0.50;99.90;;;;;;4948620;27;20090;-86
2021/03/02 00:51:41;;;;;;;43.35;10.95;;;0.60;99.90;;;;;;4946145;27;20083;-86
2021/03/02 00:54:09;;;;;;;35.50;8.90;;;0.60;99.90;;;;;;4951431;27;20146;-87
2021/03/02 00:56:32;;;;;;;61.35;10.00;;;0.70;99.90;;;;;;4948854;27;20177;-87
2021/03/02 00:58:55;;;;;;;39.83;10.50;;;0.70;99.90;;;;;;4945486;27;20143;-83
2021/03/02 01:01:26;;;;;;;45.63;10.23;;;0.80;99.90;;;;;;4954526;27;20090;-86
2021/03/02 01:03:48;;;;;;;43.05;9.23;;;0.80;99.90;;;;;;4955680;27;20094;-87
2021/03/02 01:06:18;;;;;;;31.77;10.48;;;0.80;99.90;;;;;;4953980;27;20089;-87
2021/03/02 01:08:42;;;;;;;33.17;9.55;;;0.80;99.90;;;;;;4952631;27;20085;-86
2021/03/02 01:11:17;;;;;;;24.38;9.40;;;0.80;99.90;;;;;;4946134;27;20086;-87
2021/03/02 01:13:40;;;;;;;37.27;10.43;;;0.80;99.90;;;;;;4949875;27;20088;-85
2021/03/02 01:16:03;;;;;;;38.22;10.10;;;0.80;99.90;;;;;;4951050;27;20093;-87
2021/03/02 01:18:25;;;;;;;54.92;9.52;;;0.00;99.90;;;;;;4953661;27;20093;-87
2021/03/02 01:20:48;;;;;;;46.05;10.00;;;0.80;99.90;;;;;;4952354;27;20100;-86
2021/03/02 01:23:13;;;;;;;33.50;9.82;;;0.90;99.90;;;;;;4943430;27;23447;-86
2021/03/02 01:25:36;;;;;;;22.10;8.73;;;0.80;99.90;;;;;;4936822;27;20092;-86
2021/03/02 01:27:59;;;;;;;44.80;9.15;;;0.90;99.90;;;;;;4952764;27;20093;-88
2021/03/02 01:30:25;;;;;;;39.25;9.02;;;0.80;99.90;;;;;;4941729;27;20097;-85
2021/03/02 01:32:50;;;;;;;32.97;8.45;;;0.90;99.90;;;;;;4947779;27;20082;-87
2021/03/02 01:35:15;;;;;;;23.75;8.63;;;0.80;99.90;;;;;;4949466;27;20108;-87
2021/03/02 01:37:39;;;;;;;22.30;8.35;;;0.70;99.90;;;;;;4945973;27;20082;-86
2021/03/02 01:40:04;;;;;;;40.60;7.50;;;0.80;99.90;;;;;;4947464;27;20094;-86
2021/03/02 01:42:28;;;;;;;43.80;8.55;;;0.80;99.90;;;;;;4948016;27;20086;-86
2021/03/02 01:44:51;;;;;;;19.37;6.33;;;0.80;99.90;;;;;;4955654;27;20165;-87
2021/03/02 01:47:14;;;;;;;37.47;8.55;;;0.90;99.90;;;;;;4943439;27;20499;-83
2021/03/02 01:49:37;;;;;;;54.55;8.10;;;1.00;99.90;;;;;;4941275;27;20090;-86
2021/03/02 01:52:06;;;;;;;60.72;9.82;;;0.90;99.90;;;;;;4952829;27;20077;-84
2021/03/02 01:54:29;;;;;;;57.08;9.98;;;1.00;99.90;;;;;;4945128;27;20545;-87
2021/03/02 01:56:54;;;;;;;50.72;11.18;;;1.00;99.90;;;;;;4945082;27;20081;-86
2021/03/02 01:59:19;;;;;;;51.85;10.77;;;1.00;99.90;;;;;;4945952;27;20093;-85
2021/03/02 02:01:42;;;;;;;69.20;11.18;;;0.90;99.90;;;;;;4948720;27;20104;-86
2021/03/02 02:04:13;;;;;;;63.17;9.85;;;0.80;99.90;;;;;;4951517;27;20093;-85
2021/03/02 02:06:41;;;;;;;77.68;9.65;;;0.80;99.90;;;;;;4948115;27;20087;-86
2021/03/02 02:09:09;;;;;;;81.28;10.13;;;0.80;99.90;;;;;;4951704;27;20082;-87
2021/03/02 02:11:51;;;;;;;51.50;9.60;;;0.80;99.90;;;;;;4952863;27;20090;-85
2021/03/02 02:14:23;;;;;;;68.45;10.00;;;0.80;99.90;;;;;;4956022;27;20081;-85
2021/03/02 02:16:56;;;;;;;72.88;11.63;;;0.70;99.90;;;;;;4946713;27;20085;-86
2021/03/02 02:19:41;;;;;;;47.13;10.15;;;0.80;99.90;;;;;;4946640;27;20092;-86
2021/03/02 02:22:18;;;;;;;75.37;11.83;;;0.80;99.90;;;;;;4942422;27;20089;-86
2021/03/02 02:25:03;;;;;;;55.65;10.55;;;0.80;99.90;;;;;;4949608;27;20085;-86
2021/03/02 02:27:31;;;;;;;55.22;11.60;;;0.80;99.90;;;;;;4948845;27;20089;-84
2021/03/02 02:29:54;;;;;;;56.58;13.23;;;0.80;99.90;;;;;;4957256;27;20445;-87
2021/03/02 02:32:18;;;;;;;86.15;12.20;;;0.80;99.90;;;;;;4954588;27;20094;-86
2021/03/02 02:34:45;;;;;;;71.35;12.50;;;0.80;99.90;;;;;;4959491;27;20087;-87
2021/03/02 02:37:11;;;;;;;63.38;11.98;;;0.80;99.90;;;;;;4956151;27;20083;-86
2021/03/02 02:39:36;;;;;;;49.05;11.60;;;0.80;99.90;;;;;;4943205;27;20087;-86
2021/03/02 02:42:00;;;;;;;;;;;0.80;99.90;;;;;;4946589;27;20085;-86
2021/03/02 02:44:26;;;;;;;55.13;11.55;;;0.80;99.90;;;;;;4943268;27;19969;-86
2021/03/02 02:46:51;;;;;;;79.82;13.32;;;0.80;99.90;;;;;;4953934;27;20086;-86
2021/03/02 02:49:16;;;;;;;79.13;13.02;;;0.80;99.90;;;;;;4947043;27;20087;-87
2021/03/02 02:51:39;;;;;;;54.28;12.55;;;0.80;99.90;;;;;;4951008;27;20089;-87
2021/03/02 02:54:02;;;;;;;51.95;13.38;;;0.80;99.90;;;;;;4945696;27;20172;-82
2021/03/02 02:56:30;;;;;;;47.95;12.35;;;0.90;99.90;;;;;;4954630;27;20143;-86
2021/03/02 02:59:03;;;;;;;73.68;13.00;;;0.80;99.90;;;;;;4953398;27;20127;-87
2021/03/02 03:01:29;;;;;;;72.35;13.60;;;0.80;99.90;;;;;;4958051;27;20093;-85
2021/03/02 03:03:51;;;;;;;;;;;0.80;99.90;;;;;;4936947;27;20206;-86
2021/03/02 03:06:18;;;;;;;63.67;12.43;;;0.80;99.90;;;;;;4948182;27;20321;-86
2021/03/02 03:08:49;;;;;;;47.00;12.70;;;0.80;99.90;;;;;;4944863;27;20101;-86
2021/03/02 03:11:17;;;;;;;53.67;14.32;;;0.80;99.90;;;;;;4922862;28;20114;-85
2021/03/02 03:13:44;;;;;;;54.65;12.50;;;0.80;99.90;;;;;;4945832;28;20448;-87
2021/03/02 03:16:10;;;;;;;76.03;14.90;;;0.80;99.90;;;;;;4935878;27;20085;-87
2021/03/02 03:18:44;;;;;;;62.05;12.95;;;0.80;99.90;;;;;;4942669;27;20086;-85
2021/03/02 03:21:08;;;;;;;66.63;13.50;;;0.80;99.90;;;;;;4949768;27;20082;-84
2021/03/02 03:23:32;;;;;;;77.22;12.65;;;0.80;99.90;;;;;;4956123;27;20093;-85
2021/03/02 03:25:55;;;;;;;78.03;13.82;;;0.80;99.90;;;;;;4949873;27;20086;-87
2021/03/02 03:28:26;;;;;;;65.03;12.98;;;0.80;99.90;;;;;;4952879;27;20090;-86
2021/03/02 03:30:50;;;;;;;66.15;13.38;;;0.80;99.90;;;;;;4942485;27;20224;-87
2021/03/02 03:33:15;;;;;;;45.10;14.20;;;0.80;99.90;;;;;;4945678;27;20100;-87
2021/03/02 03:35:42;;;;;;;53.15;15.18;;;0.80;99.90;;;;;;4941664;27;20093;-86
2021/03/02 03:38:05;;;;;;;56.20;15.63;;;0.90;99.90;;;;;;4946049;27;20088;-86
2021/03/02 03:40:30;;;;;;;57.22;15.57;;;1.00;99.90;;;;;;4945736;28;20165;-87
2021/03/02 03:42:55;;;;;;;52.17;16.45;;;1.00;99.90;;;;;;4945769;27;20504;-87
2021/03/02 03:45:19;;;;;;;64.13;15.00;;;1.00;99.90;;;;;;4949180;27;20090;-87
2021/03/02 03:47:50;;;;;;;46.58;14.82;;;0.90;99.90;;;;;;4948205;27;20103;-87
2021/03/02 03:50:16;;;;;;;48.50;14.88;;;0.90;99.90;;;;;;4949390;27;20605;-87
2021/03/02 03:52:44;;;;;;;67.55;16.48;;;0.90;99.90;;;;;;4951133;27;20093;-85
2021/03/02 03:55:09;;;;;;;57.15;15.80;;;0.90;99.90;;;;;;4953020;27;20897;-87
2021/03/02 03:57:39;;;;;;;58.80;14.98;;;0.90;99.90;;;;;;4946690;27;20078;-88
2021/03/02 04:00:04;;;;;;;54.58;16.35;;;0.90;99.90;;;;;;4944549;28;20153;-87
2021/03/02 04:02:35;;;;;;;60.65;15.63;;;0.90;99.90;;;;;;4944834;27;20093;-87
2021/03/02 04:05:05;;;;;;;58.78;17.63;;;0.90;99.90;;;;;;4956015;27;20078;-86
2021/03/02 04:07:30;;;;;;;55.05;16.80;;;0.90;99.90;;;;;;4952166;27;20082;-85
2021/03/02 04:09:57;;;;;;;63.85;17.40;;;1.00;99.90;;;;;;4952898;27;20097;-88
2021/03/02 04:12:19;;;;;;;70.90;17.58;;;1.00;99.90;;;;;;4940905;27;20078;-87
2021/03/02 04:14:43;;;;;;;84.68;17.48;;;1.10;99.90;;;;;;4952886;27;20434;-86
2021/03/02 04:17:11;;;;;;;84.78;17.73;;;1.10;99.90;;;;;;4943678;27;20481;-86
2021/03/02 04:19:36;;;;;;;81.57;17.23;;;1.10;99.90;;;;;;4947943;27;20081;-87
2021/03/02 04:21:59;;;;;;;92.90;14.60;;;1.10;99.90;;;;;;4950272;27;20146;-88
2021/03/02 04:24:30;;;;;;;88.25;16.83;;;1.10;99.90;;;;;;4954155;27;20097;-87
2021/03/02 04:26:56;;;;;;;58.30;16.20;;;;;;;;;;4945109;27;20104;-87
2021/03/02 04:29:28;;;;;;;81.55;14.55;;;1.00;99.90;;;;;;4947460;27;20078;-87
2021/03/02 04:31:51;;;;;;;84.13;17.35;;;1.00;99.90;;;;;;4949204;27;20089;-88
2021/03/02 04:34:19;;;;;;;91.10;18.33;;;1.00;99.90;;;;;;4950342;27;20515;-86
2021/03/02 04:36:52;;;;;;;74.47;16.15;;;0.90;99.90;;;;;;4950329;27;20123;-88
2021/03/02 04:39:20;;;;;;;70.60;16.10;;;1.00;99.90;;;;;;4954813;27;20173;-87
2021/03/02 04:41:43;;;;;;;98.53;17.00;;;1.00;99.90;;;;;;4949354;27;20092;-87
2021/03/02 04:44:15;;;;;;;60.83;16.83;;;1.00;99.90;;;;;;4950806;27;20160;-87
2021/03/02 04:46:41;;;;;;;93.03;16.25;;;0.90;99.90;;;;;;4948313;27;20116;-87
2021/03/02 04:49:04;;;;;;;89.43;16.95;;;0.90;99.90;;;;;;4950428;27;20088;-87
2021/03/02 04:51:32;;;;;;;95.85;16.48;;;0.90;99.90;;;;;;4948573;27;20085;-87
2021/03/02 04:53:55;;;;;;;58.30;16.83;;;0.90;99.90;;;;;;4955589;27;20078;-88
2021/03/02 04:56:18;;;;;;;109.88;19.10;;;0.90;99.90;;;;;;4952735;27;20092;-87
2021/03/02 04:58:40;;;;;;;88.38;17.70;;;0.90;99.90;;;;;;4956366;27;20133;-85
2021/03/02 05:01:06;;;;;;;101.85;17.92;;;;;;;;;;4955080;27;20439;-85
2021/03/02 05:03:28;;;;;;;89.10;18.83;;;0.90;99.90;;;;;;4950068;27;20085;-86
2021/03/02 05:05:51;;;;;;;81.07;18.00;;;0.90;99.90;;;;;;4958184;27;20094;-85
2021/03/02 05:08:15;;;;;;;110.53;18.73;;;0.90;99.90;;;;;;4956451;27;20087;-87
2021/03/02 05:10:38;;;;;;;84.53;20.13;;;1.00;99.90;;;;;;4955249;27;20086;-86
2021/03/02 05:13:01;;;;;;;74.28;20.35;;;1.00;99.90;;;;;;4956495;27;20081;-87
2021/03/02 05:15:30;;;;;;;113.38;20.05;;;1.00;99.90;;;;;;4950274;27;20109;-85
2021/03/02 05:17:54;;;;;;;98.22;19.63;;;;;;;;;;4954293;27;20087;-88
2021/03/02 05:20:19;;;;;;;87.60;19.33;;;1.00;99.90;;;;;;4949400;27;20089;-87
2021/03/02 05:22:42;;;;;;;75.60;19.05;;;1.00;99.90;;;;;;4953033;27;20090;-87
2021/03/02 05:25:08;;;;;;;76.85;19.15;;;1.00;99.90;;;;;;4950967;27;20089;-86
2021/03/02 05:27:32;;;;;;;69.05;19.75;;;1.00;99.90;;;;;;4951887;27;20094;-85
2021/03/02 05:29:54;;;;;;;81.10;19.15;;;1.10;99.90;;;;;;4954297;27;20095;-86
2021/03/02 05:32:17;;;;;;;53.88;19.30;;;1.00;99.90;;;;;;4957723;27;20086;-85
2021/03/02 05:34:47;;;;;;;46.95;17.88;;;;;;;;;;4948855;27;20093;-86
2021/03/02 05:37:10;;;;;;;64.43;18.23;;;1.10;99.90;;;;;;4954789;27;20105;-87
2021/03/02 05:39:37;;;;;;;56.78;18.33;;;1.00;99.90;;;;;;4947654;27;20154;-86
2021/03/02 05:42:07;;;;;;;74.93;17.58;;;1.00;99.90;;;;;;4952952;27;20081;-86
2021/03/02 05:44:31;;;;;;;107.72;18.45;;;1.00;99.90;;;;;;4956143;27;20599;-87
2021/03/02 05:46:54;;;;;;;78.45;17.65;;;1.00;99.90;;;;;;4949480;27;20093;-88
2021/03/02 05:49:19;;;;;;;79.78;18.08;;;0.90;99.90;;;;;;4954836;27;20090;-86
2021/03/02 05:51:44;;;;;;;59.20;18.48;;;0.80;99.90;;;;;;4949808;27;20086;-87
2021/03/02 05:54:16;;;;;;;57.55;18.17;;;0.90;99.90;;;;;;4948232;27;20142;-87
2021/03/02 05:56:43;;;;;;;112.07;18.30;;;1.00;99.90;;;;;;4947225;27;21017;-85
2021/03/02 05:59:15;;;;;;;63.88;17.70;;;0.90;99.90;;;;;;4954721;27;20620;-87
2021/03/02 06:01:38;;;;;;;63.60;18.90;;;1.00;99.90;;;;;;4956917;27;20441;-86
2021/03/02 06:04:01;;;;;;;84.65;19.08;;;;;;;;;;4937245;27;20165;-86
2021/03/02 06:06:25;;;;;;;73.07;18.70;;;1.00;99.90;;;;;;4951004;27;20108;-84
2021/03/02 06:08:48;;;;;;;125.15;18.95;;;0.90;99.90;;;;;;4950469;27;20096;-87
2021/03/02 06:11:27;;;;;;;88.88;19.45;;;0.80;99.90;;;;;;4954724;27;20090;-85
2021/03/02 06:13:50;;;;;;;90.25;17.27;;;0.80;99.90;;;;;;4941440;27;20090;-84
2021/03/02 06:16:16;;;;;;;89.65;18.75;;;0.80;99.90;;;;;;4942116;27;20452;-86
2021/03/02 06:18:53;;;;;;;90.60;18.50;;;0.80;99.90;;;;;;4944665;28;20097;-86
2021/03/02 06:21:16;;;;;;;82.25;18.52;;;0.80;99.90;;;;;;4944711;28;20085;-86
2021/03/02 06:23:47;;;;;;;87.95;18.08;;;0.90;99.90;;;;;;4943901;28;20082;-86
2021/03/02 06:26:26;;;;;;;84.57;18.85;;;0.80;99.90;;;;;;4940924;27;20091;-87
2021/03/02 06:28:49;;;;;;;86.28;17.77;;;0.90;99.90;;;;;;4938065;28;20446;-86
2021/03/02 06:31:29;;;;;;;69.93;18.42;;;0.90;99.90;;;;;;4937430;28;20173;-86
2021/03/02 06:34:04;;;;;;;85.40;18.15;;;1.00;99.90;;;;;;4938098;27;20097;-86
2021/03/02 06:36:27;;;;;;;60.00;17.70;;;1.10;99.90;;;;;;4944199;27;20164;-85
2021/03/02 06:38:51;;;;;;;69.47;18.13;;;1.10;99.90;;;;;;4943354;28;20139;-88
2021/03/02 06:41:20;;;;;;;92.63;19.00;;;1.10;99.90;;;;;;4944741;28;20090;-87
2021/03/02 06:43:43;;;;;;;98.57;18.90;;;1.10;99.90;;;;;;4947753;27;20107;-85
2021/03/02 06:46:09;;;;;;;82.40;17.10;;;1.00;99.90;;;;;;4949797;27;20097;-87
2021/03/02 06:48:50;;;;;;;103.13;17.25;;;0.90;99.90;;;;;;4953101;27;21144;-86
2021/03/02 06:51:24;;;;;;;95.15;19.17;;;0.90;99.90;;;;;;4946455;27;20177;-83
2021/03/02 06:54:02;;;;;;;72.50;18.88;;;0.90;99.90;;;;;;4949875;27;20089;-86
2021/03/02 06:56:26;;;;;;;77.60;17.23;;;0.90;99.90;;;;;;4947879;27;20097;-83
2021/03/02 06:59:10;;;;;;;109.90;18.90;;;0.90;99.90;;;;;;4946972;27;20096;-85
2021/03/02 07:01:36;;;;;;;77.93;17.98;;;0.90;99.90;;;;;;4951043;27;20085;-85
2021/03/02 07:04:10;;;;;;;94.78;19.25;;;0.90;99.90;;;;;;4945933;27;20084;-83
2021/03/02 07:06:37;;;;;;;92.00;18.83;;;0.90;99.90;;;;;;4949411;27;20112;-85
2021/03/02 07:09:00;;;;;;;105.82;19.45;;;1.10;99.90;;;;;;4950529;27;20094;-86
2021/03/02 07:11:23;;;;;;;63.97;20.92;;;1.20;99.90;;;;;;4947845;27;20138;-86
2021/03/02 07:13:47;;;;;;;77.18;21.20;;;1.30;99.90;;;;;;4953334;27;20093;-80
2021/03/02 07:16:11;;;;;;;128.40;20.25;;;1.30;99.90;;;;;;4953691;27;20587;-87
2021/03/02 07:18:34;;;;;;;83.75;17.95;;;1.30;99.90;;;;;;4946617;27;20131;-86
2021/03/02 07:21:00;;;;;;;83.40;18.30;;;1.30;99.90;;;;;;4950179;27;20090;-84
2021/03/02 07:23:24;;;;;;;83.57;18.05;;;1.40;99.90;;;;;;4951998;27;20088;-86
2021/03/02 07:25:49;;;;;;;83.20;18.92;;;1.50;99.90;;;;;;4960023;27;20179;-84
2021/03/02 07:28:24;;;;;;;114.10;18.15;;;1.40;99.90;;;;;;4948843;27;20600;-88
2021/03/02 07:30:55;;;;;;;93.88;16.27;;;1.30;99.90;;;;;;4943531;27;20110;-85
2021/03/02 07:33:19;;;;;;;80.18;19.40;;;1.40;99.90;;;;;;4953984;27;20074;-85
2021/03/02 07:35:42;;;;;;;96.65;18.25;;;1.40;99.90;;;;;;4949863;27;20094;-85
2021/03/02 07:38:12;;;;;;;99.53;20.02;;;1.50;99.90;;;;;;4947920;27;20095;-85
2021/03/02 07:40:48;;;;;;;119.07;19.58;;;1.50;99.90;;;;;;4939956;28;20089;-87
2021/03/02 07:43:32;;;;;;;116.40;21.17;;;1.40;99.90;;;;;;4933878;28;20101;-85
2021/03/02 07:45:57;;;;;;;152.68;20.08;;;1.50;99.90;;;;;;4947068;27;20097;-86
2021/03/02 07:48:37;;;;;;;121.88;19.83;;;1.40;99.90;;;;;;4939396;27;20089;-86
2021/03/02 07:51:21;;;;;;;105.40;19.13;;;1.40;99.90;;;;;;4942760;27;20085;-85
2021/03/02 07:53:46;;;;;;;125.60;17.23;;;;;;;;;;4934494;28;20082;-87
2021/03/02 07:56:25;;;;;;;130.60;19.73;;;1.40;99.90;;;;;;4941018;28;20140;-86
2021/03/02 07:59:19;;;;;;;109.13;18.95;;;1.50;99.90;;;;;;4941219;28;20082;-85
2021/03/02 08:01:43;;;;;;;120.88;20.30;;;;;;;;;;4938696;28;20571;-84
2021/03/02 08:04:32;;;;;;;83.90;19.45;;;1.80;99.90;;;;;;4944018;28;20109;-86
2021/03/02 08:07:19;;;;;;;96.57;20.15;;;1.80;99.90;;;;;;4889987;27;20077;-84
2021/03/02 08:09:42;;;;;;;73.05;18.23;;;1.80;99.90;;;;;;4943479;27;20086;-84
2021/03/02 08:12:25;;;;;;;72.65;19.83;;;2.00;99.90;;;;;;4943593;27;20177;-84
2021/03/02 08:14:50;;;;;;;85.30;18.70;;;2.10;99.90;;;;;;4942109;28;20092;-84
2021/03/02 08:17:20;;;;;;;80.90;19.50;;;2.10;99.90;;;;;;4942646;28;20078;-85
2021/03/02 08:19:46;;;;;;;94.95;16.27;;;2.10;99.90;;;;;;4941612;28;20086;-88
2021/03/02 08:22:49;;;;;;;78.57;18.20;;;1.90;99.90;;;;;;4943517;28;20094;-86
2021/03/02 08:25:30;;;;;;;57.65;17.60;;;2.00;99.90;;;;;;4950171;27;20097;-86
2021/03/02 08:27:59;;;;;;;81.53;17.02;;;2.30;99.90;;;;;;4953093;27;20103;-87
2021/03/02 08:30:24;;;;;;;69.88;16.70;;;2.30;99.90;;;;;;4953822;27;20108;-85
2021/03/02 08:32:49;;;;;;;92.90;17.15;;;2.10;99.90;;;;;;4956640;27;20089;-86
2021/03/02 08:35:13;;;;;;;91.93;17.25;;;2.00;99.90;;;;;;4952311;27;20113;-87
2021/03/02 08:37:41;;;;;;;88.57;16.52;;;2.20;99.90;;;;;;4950535;27;20143;-83
2021/03/02 08:40:06;;;;;;;85.13;17.75;;;2.20;99.90;;;;;;4957031;27;20082;-87
2021/03/02 08:42:30;;;;;;;83.00;16.27;;;2.20;99.90;;;;;;4950708;27;20086;-87
2021/03/02 08:45:06;;;;;;;72.72;15.73;;;2.20;99.90;;;;;;4952456;27;20090;-82
2021/03/02 08:47:28;;;;;;;;;;;2.00;99.90;;;;;;4955643;27;20716;-87
2021/03/02 08:49:52;;;;;;;69.28;14.07;;;2.10;99.90;;;;;;4952021;27;19961;-86
2021/03/02 08:52:16;;;;;;;53.17;16.15;;;2.20;99.90;;;;;;4955520;27;20086;-85
2021/03/02 08:54:48;;;;;;;54.47;15.63;;;2.20;99.90;;;;;;4957588;27;20211;-86
2021/03/02 08:57:11;;;;;;;86.53;15.57;;;2.20;99.90;;;;;;4950630;27;20447;-86
2021/03/02 08:59:37;;;;;;;86.65;16.88;;;2.20;99.90;;;;;;4954278;27;20113;-86
2021/03/02 09:02:21;;;;;;;73.70;16.27;;;2.40;99.90;;;;;;4908844;27;20669;-86
2021/03/02 09:05:04;;;;;;;52.92;16.02;;;2.50;99.90;;;;;;4899753;27;20174;-86
2021/03/02 09:07:35;;;;;;;61.38;14.52;;;2.30;99.90;;;;;;4896316;27;20097;-86
2021/03/02 09:10:36;;;;;;;66.47;15.57;;;2.40;99.90;;;;;;4883674;27;20090;-85
2021/03/02 09:13:20;;;;;;;73.13;16.88;;;2.50;99.90;;;;;;4899230;27;20085;-83
2021/03/02 09:15:56;;;;;;;60.63;15.20;;;2.40;99.90;;;;;;4890943;27;20094;-85
2021/03/02 09:18:33;;;;;;;53.08;16.42;;;2.50;99.90;;;;;;4893718;27;20092;-84
2021/03/02 09:21:33;;;;;;;45.60;17.10;;;2.80;99.90;;;;;;4898065;27;20085;-84
2021/03/02 09:30:36;;;;;;;54.70;17.58;;;3.50;99.90;;;;;;4886402;27;20092;-84
2021/03/02 09:33:15;;;;;;;61.92;16.90;;;3.10;99.90;;;;;;4890501;27;20081;-87
2021/03/02 09:35:42;;;;;;;51.88;18.20;;;3.10;99.90;;;;;;4893220;27;20161;-85
2021/03/02 09:38:59;;;;;;;57.92;18.15;;;3.30;99.90;;;;;;4883052;27;20113;-87
2021/03/02 09:45:14;;;;;;;47.95;19.25;;;3.70;99.90;;;;;;4890685;27;20085;-86
2021/03/02 10:01:22;;;;;;;38.30;15.20;;;3.70;99.90;;;;;;4890162;27;20158;-85
2021/03/02 10:14:30;;;;;;;38.92;17.50;;;4.60;99.90;;;;;;4877268;27;20085;-86
2021/03/02 10:20:28;;;;;;;30.85;14.18;;;4.40;99.90;;;;;;4882144;27;20172;-86
2021/03/02 10:29:33;;;;;;;28.88;14.48;;;3.90;99.90;;;;;;4890496;27;20116;-88
2021/03/02 10:35:38;;;;;;;29.10;13.68;;;4.00;99.90;;;;;;4892678;27;20090;-86
2021/03/02 10:38:17;;;;;;;35.80;15.48;;;4.20;99.90;;;;;;4874737;27;20524;-84
2021/03/02 10:41:07;;;;;;;33.88;15.98;;;4.40;99.90;;;;;;4882452;27;20094;-85
2021/03/02 10:43:56;;;;;;;34.97;16.35;;;4.40;99.90;;;;;;4880712;27;20089;-85
2021/03/02 10:47:04;;;;;;;39.70;16.52;;;4.70;99.90;;;;;;4897926;27;20428;-85
2021/03/02 10:49:52;;;;;;;35.10;16.45;;;4.90;99.90;;;;;;4889922;27;20088;-87
2021/03/02 10:52:14;;;;;;;36.05;16.63;;;4.50;99.90;;;;;;4942559;27;20085;-86
2021/03/02 10:54:37;;;;;;;43.05;19.20;;;4.50;99.90;;;;;;4935182;27;20100;-87
2021/03/02 10:57:00;;;;;;;36.38;17.90;;;4.70;99.90;;;;;;4934623;28;20086;-85
2021/03/02 10:59:23;;;;;;;41.35;18.23;;;4.80;99.90;;;;;;4932698;28;20169;-86
2021/03/02 11:01:46;;;;;;;41.58;17.88;;;5.10;99.90;;;;;;4942062;28;20105;-83
2021/03/02 11:04:10;;;;;;;34.70;15.68;;;4.80;99.90;;;;;;4944432;27;20094;-87
2021/03/02 11:06:34;;;;;;;34.05;16.00;;;4.60;99.90;;;;;;4952351;27;20162;-87
2021/03/02 11:08:57;;;;;;;36.70;16.50;;;4.80;99.90;;;;;;4950994;27;20541;-85
2021/03/02 11:11:20;;;;;;;35.63;17.45;;;5.10;99.90;;;;;;4952481;27;20096;-83
2021/03/02 11:13:43;;;;;;;37.55;16.77;;;5.00;99.90;;;;;;4949896;28;20182;-88
2021/03/02 11:16:06;;;;;;;32.40;16.15;;;4.70;99.90;;;;;;4949142;28;21957;-85
2021/03/02 11:18:29;;;;;;;35.33;16.50;;;4.30;99.90;;;;;;4942623;28;20094;-85
2021/03/02 11:20:52;;;;;;;41.17;17.08;;;4.30;99.90;;;;;;4948744;28;21329;-86
2021/03/02 11:23:16;;;;;;;41.95;16.83;;;4.40;99.90;;;;;;4946104;28;20082;-84
2021/03/02 11:25:41;;;;;;;40.30;16.98;;;4.40;99.90;;;;;;4944032;28;20090;-88
2021/03/02 11:28:04;;;;;;;33.53;16.88;;;4.50;99.90;;;;;;4941911;28;20089;-84
2021/03/02 11:30:29;;;;;;;41.70;18.05;;;4.80;99.90;;;;;;4939738;28;20109;-85
2021/03/02 11:32:52;;;;;;;33.58;17.33;;;5.10;99.90;;;;;;4943550;28;20085;-86
2021/03/02 11:35:16;;;;;;;36.63;16.52;;;4.90;99.90;;;;;;4943540;27;20172;-84
2021/03/02 11:37:40;;;;;;;33.25;15.98;;;4.90;99.90;;;;;;4943919;28;20085;-86
2021/03/02 11:40:07;;;;;;;38.22;16.25;;;5.00;99.90;;;;;;4942627;28;20093;-87
2021/03/02 11:42:30;;;;;;;37.25;16.05;;;;;;;;;;4945590;28;20177;-87
2021/03/02 11:45:02;;;;;;;34.58;16.33;;;5.20;99.90;;;;;;4942674;28;20090;-87
2021/03/02 11:47:24;;;;;;;37.95;15.38;;;5.30;99.90;;;;;;4939727;28;20090;-85
2021/03/02 11:49:49;;;;;;;28.75;13.85;;;5.40;99.90;;;;;;4941527;28;20094;-84
2021/03/02 11:52:18;;;;;;;20.42;11.05;;;5.20;99.90;;;;;;4941660;28;20086;-84
2021/03/02 11:54:42;;;;;;;20.98;10.95;;;5.50;99.90;;;;;;4942864;28;20164;-88
2021/03/02 11:57:05;;;;;;;19.42;10.95;;;5.60;99.90;;;;;;4941925;28;20086;-86
2021/03/02 11:59:27;;;;;;;18.60;10.45;;;5.60;99.90;;;;;;4941881;28;20086;-86
2021/03/02 12:01:51;;;;;;;18.73;10.93;;;5.70;99.90;;;;;;4946745;27;20092;-87
2021/03/02 12:04:15;;;;;;;20.52;10.30;;;5.80;99.90;;;;;;4936414;28;20082;-88
2021/03/02 12:06:37;;;;;;;19.80;10.80;;;5.90;99.90;;;;;;4937013;28;20143;-82
2021/03/02 12:09:01;;;;;;;21.55;11.55;;;5.90;99.90;;;;;;4943613;27;20101;-83
2021/03/02 12:11:25;;;;;;;22.05;11.68;;;5.90;99.90;;;;;;4946901;27;20089;-85
2021/03/02 12:13:49;;;;;;;25.67;11.60;;;6.00;99.90;;;;;;4947768;28;20077;-85
2021/03/02 12:16:12;;;;;;;17.92;9.73;;;5.90;99.90;;;;;;4943234;28;20092;-88
2021/03/02 12:18:35;;;;;;;20.58;10.45;;;5.40;99.90;;;;;;4945399;28;20100;-83
2021/03/02 12:21:04;;;;;;;20.70;10.32;;;5.40;99.90;;;;;;4945411;28;20516;-83
2021/03/02 12:23:28;;;;;;;19.85;10.40;;;5.60;99.90;;;;;;4945575;27;20093;-88
2021/03/02 12:25:53;;;;;;;21.15;9.95;;;5.50;99.90;;;;;;4944924;27;20093;-87
2021/03/02 12:28:17;;;;;;;17.35;9.95;;;5.40;99.90;;;;;;4939955;28;20585;-87
2021/03/02 12:30:46;;;;;;;18.10;9.00;;;5.20;99.90;;;;;;4946505;28;20093;-88
2021/03/02 12:33:09;;;;;;;17.23;9.10;;;5.10;99.90;;;;;;4934043;28;20082;-84
2021/03/02 12:35:33;;;;;;;21.20;9.65;;;5.00;99.90;;;;;;4947009;27;20460;-84
2021/03/02 12:37:56;;;;;;;21.45;10.90;;;5.10;99.90;;;;;;4943883;27;20082;-85
2021/03/02 12:40:19;;;;;;;23.33;11.40;;;5.20;99.90;;;;;;4946570;28;20563;-89
2021/03/02 12:42:43;;;;;;;19.77;10.20;;;;;;;;;;4947025;28;20098;-84
2021/03/02 12:45:08;;;;;;;18.73;10.50;;;5.10;99.90;;;;;;4937238;28;23229;-87
2021/03/02 12:47:31;;;;;;;17.90;9.68;;;5.10;99.90;;;;;;4945904;27;21291;-88
2021/03/02 12:49:54;;;;;;;21.20;10.77;;;5.40;99.90;;;;;;4944164;28;20085;-87
2021/03/02 12:52:17;;;;;;;22.50;11.35;;;5.70;99.90;;;;;;4943570;28;20484;-87
2021/03/02 12:54:40;;;;;;;21.35;10.68;;;5.70;99.90;;;;;;4943911;28;20586;-88
2021/03/02 12:57:02;;;;;;;22.45;10.32;;;5.80;99.90;;;;;;4945823;28;20127;-87
2021/03/02 12:59:27;;;;;;;19.92;10.90;;;5.70;99.90;;;;;;4945591;28;20155;-87
2021/03/02 13:01:50;;;;;;;19.52;10.20;;;5.80;99.90;;;;;;4945689;27;20093;-88
2021/03/02 13:04:15;;;;;;;16.15;9.27;;;5.90;99.90;;;;;;4945757;28;20139;-86
2021/03/02 13:06:39;;;;;;;15.93;8.88;;;5.60;99.90;;;;;;4946836;28;20090;-86
2021/03/02 13:09:02;;;;;;;18.38;9.38;;;5.20;99.90;;;;;;4945984;28;20100;-89
2021/03/02 13:11:27;;;;;;;16.45;9.95;;;5.00;99.90;;;;;;4937445;27;20448;-86
2021/03/02 13:13:50;;;;;;;20.83;9.30;;;5.10;99.90;;;;;;4949528;27;20078;-88
2021/03/02 13:16:16;;;;;;;22.02;10.77;;;5.20;99.90;;;;;;4957240;27;20649;-86
2021/03/02 13:18:39;;;;;;;25.73;12.40;;;5.50;99.90;;;;;;4952938;27;20081;-87
2021/03/02 13:21:04;;;;;;;36.55;16.67;;;5.80;99.90;;;;;;4949103;27;20093;-88
2021/03/02 13:23:28;;;;;;;21.85;10.95;;;5.90;99.90;;;;;;4952040;27;20093;-87
2021/03/02 13:25:52;;;;;;;19.83;10.13;;;6.00;99.90;;;;;;4953165;27;20101;-84
2021/03/02 13:28:15;;;;;;;20.40;10.18;;;5.80;99.90;;;;;;4954155;27;20090;-86
2021/03/02 13:30:38;;;;;;;18.20;9.93;;;5.50;99.90;;;;;;4954455;27;20082;-87
2021/03/02 13:33:08;;;;;;;21.38;12.00;;;5.50;99.90;;;;;;4955100;27;20094;-85